createdAt,value
2022-11-29T00:01:40.839Z,2.38
2022-11-29T00:04:08.120Z,3.67
2022-11-29T00:06:36.506Z,3.90
2022-11-29T00:09:07.685Z,4.05
2022-11-29T00:11:59.536Z,4.15
2022-11-29T00:14:28.643Z,2.95
2022-11-29T00:17:04.691Z,3.15
2022-11-29T00:19:36.702Z,3.80
2022-11-29T00:22:10.299Z,5.30
2022-11-29T00:24:39.911Z,4.55
2022-11-29T00:27:07.544Z,4.90
2022-11-29T00:29:34.835Z,3.25
2022-11-29T00:32:03.861Z,3.00
2022-11-29T00:34:31.467Z,2.80
2022-11-29T00:36:59.183Z,2.63
2022-11-29T00:39:30.014Z,2.35
2022-11-29T00:41:57.517Z,2.33
2022-11-29T00:44:26.542Z,4.30
2022-11-29T00:46:53.667Z,5.13
2022-11-29T00:49:20.765Z,5.72
2022-11-29T00:51:49.789Z,5.93
2022-11-29T00:54:17.643Z,5.32
2022-11-29T00:56:47.030Z,5.60
2022-11-29T01:01:43.592Z,2.13
2022-11-29T01:04:10.752Z,2.45
2022-11-29T01:06:40.957Z,2.42
2022-11-29T01:09:09.419Z,3.28
2022-11-29T01:11:39.618Z,2.60
2022-11-29T01:16:34.909Z,2.78
2022-11-29T01:19:04.670Z,3.35
2022-11-29T01:21:33.297Z,2.97
2022-11-29T01:24:03.473Z,3.30
2022-11-29T01:34:07.209Z,2.45
2022-11-29T01:36:35.484Z,1.95
2022-11-29T01:39:05.369Z,2.05
2022-11-29T01:41:34.796Z,2.33
2022-11-29T01:44:05.006Z,4.63
2022-11-29T01:46:35.393Z,5.50
2022-11-29T01:49:15.598Z,5.80
2022-11-29T01:51:53.139Z,6.33
2022-11-29T01:54:21.249Z,6.43
2022-11-29T01:56:52.653Z,5.82
2022-11-29T01:59:23.994Z,5.22
2022-11-29T02:01:51.790Z,2.50
2022-11-29T02:04:20.526Z,1.77
2022-11-29T02:06:48.142Z,1.60
2022-11-29T02:09:24.566Z,1.92
2022-11-29T02:17:28.782Z,1.73
2022-11-29T02:25:28.117Z,1.30
2022-11-29T02:56:43.805Z,1.83
2022-11-29T02:59:23.023Z,3.00
2022-11-29T03:02:11.076Z,3.40
2022-11-29T03:04:48.682Z,3.50
2022-11-29T03:07:23.767Z,3.15
2022-11-29T03:09:54.367Z,3.30
2022-11-29T03:12:30.656Z,3.30
2022-11-29T03:15:13.718Z,3.58
2022-11-29T03:17:48.827Z,3.30
2022-11-29T03:20:56.055Z,4.00
2022-11-29T03:26:32.661Z,1.40
2022-11-29T03:29:22.669Z,1.73
2022-11-29T04:05:58.679Z,0.77
2022-11-29T04:08:51.284Z,1.15
2022-11-29T04:11:27.247Z,1.20
2022-11-29T04:14:27.999Z,1.58
2022-11-29T04:17:30.493Z,1.27
2022-11-29T04:20:23.821Z,1.50
2022-11-29T04:23:38.829Z,1.30
2022-11-29T04:26:34.875Z,1.25
2022-11-29T04:29:23.853Z,1.08
2022-11-29T04:31:59.769Z,1.13
2022-11-29T04:34:40.165Z,1.23
2022-11-29T04:37:38.244Z,0.93
2022-11-29T04:40:33.346Z,1.17
2022-11-29T04:45:54.633Z,1.33
2022-11-29T04:48:25.177Z,1.42
2022-11-29T04:51:28.758Z,1.20
2022-11-29T04:54:18.963Z,1.42
2022-11-29T04:56:51.474Z,1.40
2022-11-29T04:59:41.201Z,0.95
2022-11-29T05:02:31.865Z,1.25
2022-11-29T05:05:15.243Z,1.30
2022-11-29T05:08:24.460Z,0.98
2022-11-29T05:11:26.536Z,0.77
2022-11-29T05:14:15.313Z,0.75
2022-11-29T05:16:45.914Z,1.52
2022-11-29T05:19:50.319Z,1.05
2022-11-29T05:22:40.119Z,0.98
2022-11-29T05:25:27.557Z,0.88
2022-11-29T05:41:22.201Z,1.00
2022-11-29T05:44:13.577Z,1.00
2022-11-29T05:46:59.652Z,1.10
2022-11-29T05:49:51.798Z,0.98
2022-11-29T05:52:30.493Z,1.10
2022-11-29T05:55:06.638Z,0.88
2022-11-29T05:57:57.911Z,3.10
2022-11-29T06:00:33.108Z,3.15
2022-11-29T06:03:11.163Z,3.40
2022-11-29T06:05:47.289Z,2.65
2022-11-29T06:08:34.817Z,2.63
2022-11-29T06:11:25.857Z,2.80
2022-11-29T06:14:17.642Z,2.40
2022-11-29T06:17:15.850Z,1.20
2022-11-29T06:20:00.391Z,3.28
2022-11-29T06:22:33.947Z,3.70
2022-11-29T06:25:23.804Z,3.38
2022-11-29T06:28:15.789Z,3.13
2022-11-29T06:38:48.890Z,0.68
2022-11-29T06:41:23.167Z,0.80
2022-11-29T06:43:51.270Z,0.95
2022-11-29T06:46:49.638Z,0.77
2022-11-29T06:49:32.673Z,0.70
2022-11-29T06:52:24.555Z,0.95
2022-11-29T06:55:06.337Z,0.80
2022-11-29T06:57:59.614Z,0.70
2022-11-29T07:00:32.034Z,1.25
2022-11-29T07:03:39.898Z,1.33
2022-11-29T07:06:36.765Z,0.85
2022-11-29T07:09:13.923Z,0.60
2022-11-29T07:11:45.578Z,0.60
2022-11-29T07:14:13.235Z,0.63
2022-11-29T07:17:11.067Z,0.88
2022-11-29T07:20:09.242Z,1.05
2022-11-29T07:23:14.099Z,1.23
2022-11-29T07:26:17.129Z,1.42
2022-11-29T07:29:10.535Z,1.23
2022-11-29T07:31:58.645Z,0.88
2022-11-29T07:34:31.347Z,1.13
2022-11-29T07:37:09.910Z,1.33
2022-11-29T07:40:08.325Z,1.08
2022-11-29T07:42:57.347Z,1.10
2022-11-29T07:45:37.952Z,0.95
2022-11-29T07:48:05.765Z,1.08
2022-11-29T07:50:36.585Z,1.02
2022-11-29T07:53:04.102Z,1.02
2022-11-29T07:55:36.279Z,0.70
2022-11-29T07:58:06.419Z,0.80
2022-11-29T08:00:37.157Z,0.68
2022-11-29T08:03:05.979Z,0.50
2022-11-29T08:05:37.394Z,0.50
2022-11-29T08:08:07.498Z,0.65
2022-11-29T08:10:35.709Z,0.93
2022-11-29T13:30:13.690Z,2.28
2022-11-29T13:46:32.651Z,1.75
2022-11-29T13:49:02.820Z,2.45
2022-11-29T13:51:35.398Z,4.35
2022-11-29T13:54:26.729Z,2.78
2022-11-29T13:57:11.548Z,2.63
2022-11-29T13:59:50.476Z,2.35
2022-11-29T14:02:31.700Z,2.40
2022-11-29T14:05:05.794Z,2.47
2022-11-29T14:08:17.940Z,2.05
2022-11-29T14:10:52.565Z,2.38
2022-11-29T14:13:33.554Z,2.38
2022-11-29T14:16:13.421Z,1.98
2022-11-29T14:19:02.663Z,1.92
2022-11-29T14:22:04.984Z,1.60
2022-11-29T14:24:35.330Z,2.20
2022-11-29T14:27:14.512Z,1.73
2022-11-29T14:29:50.351Z,1.70
2022-11-29T14:32:26.068Z,1.63
2022-11-29T14:35:12.181Z,2.17
2022-11-29T14:38:06.675Z,2.35
2022-11-29T14:41:00.325Z,2.78
2022-11-29T14:43:41.744Z,1.98
2022-11-29T14:46:15.980Z,2.17
2022-11-29T14:48:59.135Z,2.00
2022-11-29T14:51:32.432Z,2.30
2022-11-29T14:54:14.942Z,2.17
2022-11-29T14:56:47.276Z,2.45
2022-11-29T14:59:40.249Z,1.90
2022-11-29T15:02:13.812Z,2.28
2022-11-29T15:04:41.918Z,2.20
2022-11-29T15:07:22.757Z,2.70
2022-11-29T15:09:51.273Z,2.47
2022-11-29T15:12:27.530Z,2.33
2022-11-29T15:15:33.743Z,2.35
2022-11-29T15:18:21.238Z,2.58
2022-11-29T15:21:10.918Z,2.17
2022-11-29T15:23:42.821Z,2.42
2022-11-29T15:26:19.227Z,2.00
2022-11-29T15:28:46.688Z,2.75
2022-11-29T15:31:19.143Z,2.80
2022-11-29T15:33:48.946Z,2.53
2022-11-29T15:36:22.265Z,6.72
2022-11-29T15:38:57.284Z,8.63
2022-11-29T15:41:30.076Z,5.60
2022-11-29T15:44:03.553Z,2.38
2022-11-29T15:46:35.452Z,3.05
2022-11-29T15:49:26.921Z,5.45
2022-11-29T15:52:02.676Z,4.77
2022-11-29T15:54:45.381Z,4.32
2022-11-29T15:57:41.603Z,4.63
2022-11-29T16:00:17.813Z,5.75
2022-11-29T16:02:51.063Z,4.88
2022-11-29T16:05:25.369Z,5.25
2022-11-29T16:07:56.315Z,3.10
2022-11-29T16:10:34.950Z,8.77
2022-11-29T16:13:26.208Z,4.28
2022-11-29T16:16:24.242Z,2.97
2022-11-29T16:18:54.759Z,2.70
2022-11-29T17:36:12.839Z,2.55
2022-11-29T17:38:40.102Z,2.03
2022-11-29T17:41:08.835Z,1.85
2022-11-29T17:43:36.808Z,2.13
2022-11-29T17:46:08.263Z,2.05
2022-11-29T17:48:35.887Z,1.75
2022-11-29T17:51:13.513Z,2.72
2022-11-29T17:53:50.961Z,2.08
2022-11-29T17:56:23.124Z,1.58
2022-11-29T17:58:58.698Z,2.45
2022-11-29T18:01:28.869Z,2.42
2022-11-29T18:03:58.553Z,2.55
2022-11-29T18:06:28.452Z,2.80
2022-11-29T18:08:58.074Z,2.70
2022-11-29T18:11:47.403Z,1.92
2022-11-29T18:14:20.614Z,2.15
2022-11-29T18:16:47.882Z,1.88
2022-11-29T18:19:17.889Z,1.83
2022-11-29T18:21:47.656Z,2.60
2022-11-29T18:24:15.101Z,0.20
2022-11-29T18:26:42.750Z,2.30
2022-11-29T18:29:10.412Z,2.17
2022-11-29T18:31:46.776Z,1.45
2022-11-29T18:34:14.742Z,2.05
2022-11-29T18:36:47.803Z,4.22
2022-11-29T18:39:19.738Z,3.22
2022-11-29T18:41:50.732Z,7.30
2022-11-29T18:44:22.156Z,2.40
2022-11-29T18:46:49.186Z,1.35
2022-11-29T18:49:18.116Z,2.85
2022-11-29T18:51:46.597Z,2.15
2022-11-29T18:54:18.317Z,2.55
2022-11-29T18:56:45.878Z,3.03
2022-11-29T18:59:16.999Z,2.53
2022-11-29T19:01:48.286Z,2.25
2022-11-29T19:04:18.805Z,1.92
2022-11-29T19:06:49.065Z,2.25
2022-11-29T19:09:21.475Z,1.73
2022-11-29T19:11:50.274Z,2.45
2022-11-29T19:14:18.034Z,2.30
2022-11-29T19:16:47.013Z,2.92
2022-11-29T19:19:14.496Z,2.42
2022-11-29T19:21:45.037Z,2.10
2022-11-29T19:24:14.879Z,2.97
2022-11-29T19:26:45.045Z,2.50
2022-11-29T19:29:13.978Z,1.77
2022-11-29T19:31:44.522Z,2.70
2022-11-29T19:34:11.656Z,2.95
2022-11-29T19:36:45.618Z,2.95
2022-11-29T19:39:14.870Z,12.05
2022-11-29T19:41:44.776Z,3.63
2022-11-29T19:44:12.560Z,2.55
2022-11-29T19:46:45.889Z,2.75
2022-11-29T19:49:13.290Z,3.17
2022-11-29T19:51:41.527Z,1.48
2022-11-29T19:54:09.813Z,2.53
2022-11-29T19:56:39.399Z,2.92
2022-11-29T19:59:08.365Z,3.05
2022-11-29T20:01:42.001Z,2.17
2022-11-29T20:04:11.868Z,6.85
2022-11-29T20:06:40.451Z,6.47
2022-11-29T20:09:07.779Z,6.57
2022-11-29T20:11:37.601Z,6.50
2022-11-29T20:14:06.222Z,5.85
2022-11-29T20:16:38.132Z,6.32
2022-11-29T20:19:16.868Z,4.90
2022-11-29T20:21:46.676Z,5.13
2022-11-29T20:24:15.361Z,5.28
2022-11-29T20:26:48.085Z,5.63
2022-11-29T20:29:16.737Z,7.45
2022-11-29T20:31:50.732Z,9.90
2022-11-29T20:34:18.726Z,6.20
2022-11-29T20:37:16.840Z,6.85
2022-11-29T20:39:59.885Z,5.53
2022-11-29T20:42:45.680Z,6.50
2022-11-29T20:45:14.742Z,6.93
2022-11-29T20:47:58.634Z,6.47
2022-11-29T20:50:32.120Z,7.75
2022-11-29T20:53:31.714Z,7.28
2022-11-29T20:55:59.078Z,7.43
2022-11-29T20:58:26.592Z,6.63
2022-11-29T21:00:55.244Z,9.15
2022-11-29T21:03:23.042Z,7.97
2022-11-29T21:05:54.606Z,8.50
2022-11-29T21:08:26.721Z,8.80
2022-11-29T21:11:06.709Z,5.97
2022-11-29T21:13:34.689Z,6.70
2022-11-29T21:16:07.535Z,6.38
2022-11-29T21:18:35.065Z,7.38
2022-11-29T21:21:31.461Z,6.45
2022-11-29T21:24:30.050Z,6.60
2022-11-29T21:26:57.239Z,6.55
2022-11-29T21:29:24.844Z,5.65
2022-11-29T21:31:54.175Z,5.85
2022-11-29T21:34:21.756Z,6.10
2022-11-29T21:36:55.058Z,5.93
2022-11-29T21:39:24.649Z,5.95
2022-11-29T21:41:51.852Z,5.67
2022-11-29T21:44:18.917Z,5.25
2022-11-29T21:46:46.140Z,5.50
2022-11-29T21:49:13.377Z,6.22
2022-11-29T21:51:43.131Z,5.73
2022-11-29T21:54:10.200Z,6.63
2022-11-29T21:56:37.346Z,6.63
2022-11-29T21:59:04.468Z,5.63
2022-11-29T22:01:33.969Z,6.90
2022-11-29T22:04:01.638Z,8.05
2022-11-29T22:06:34.620Z,8.68
2022-11-29T22:09:02.058Z,6.32
2022-11-29T22:11:34.409Z,6.25
2022-11-29T22:14:18.724Z,5.60
2022-11-29T22:16:57.435Z,7.22
2022-11-29T22:19:27.145Z,6.78
2022-11-29T22:21:57.240Z,7.40
2022-11-29T22:24:27.316Z,8.00
2022-11-29T22:26:54.903Z,6.47
2022-11-29T22:29:23.130Z,7.43
2022-11-29T22:31:55.433Z,7.45
2022-11-29T22:34:25.151Z,6.90
2022-11-29T22:36:52.436Z,7.33
2022-11-29T22:39:19.656Z,7.25
2022-11-29T22:41:52.268Z,7.70
2022-11-29T22:44:20.956Z,8.10
2022-11-29T22:46:50.934Z,6.63
2022-11-29T22:49:18.189Z,7.22
2022-11-29T22:51:45.483Z,7.57
2022-11-29T22:54:15.505Z,7.60
2022-11-29T22:56:46.245Z,7.97
2022-11-29T22:59:13.576Z,8.77
2022-11-29T23:01:43.772Z,8.13
2022-11-29T23:04:13.155Z,8.85
2022-11-29T23:06:44.294Z,7.78
2022-11-29T23:09:19.023Z,6.65
2022-11-29T23:11:51.025Z,6.90
2022-11-29T23:14:19.297Z,7.18
2022-11-29T23:16:46.461Z,7.10
2022-11-29T23:19:14.362Z,6.80
2022-11-29T23:21:42.041Z,7.03
2022-11-29T23:24:09.217Z,6.65
2022-11-29T23:26:40.346Z,8.17
2022-11-29T23:29:13.831Z,7.80
2022-11-29T23:31:44.382Z,7.55
2022-11-29T23:34:12.284Z,6.80
2022-11-29T23:36:39.324Z,7.28
2022-11-29T23:39:06.912Z,7.20
2022-11-29T23:41:36.058Z,7.35
2022-11-29T23:44:04.822Z,7.78
2022-11-29T23:46:31.974Z,7.23
2022-11-29T23:48:59.116Z,6.93
2022-11-29T23:51:26.437Z,6.05
2022-11-29T23:53:54.382Z,6.40
2022-11-29T23:56:22.263Z,7.07
2022-11-29T23:58:51.842Z,6.97
